sensor_id;sensor_type;location;lat;lon;timestamp;temperature;humidity
52058;DHT22;38063;53.210;6.504;2022-11-20T00:01:41;-0.30;99.90
52058;DHT22;38063;53.210;6.504;2022-11-20T00:04:09;-0.30;99.90
52058;DHT22;38063;53.210;6.504;2022-11-20T00:06:35;-0.30;99.90
52058;DHT22;38063;53.210;6.504;2022-11-20T00:09:01;-0.30;99.90
52058;DHT22;38063;53.210;6.504;2022-11-20T00:11:28;-0.30;99.90
52058;DHT22;38063;53.210;6.504;2022-11-20T00:13:56;-0.20;99.90
52058;DHT22;38063;53.210;6.504;2022-11-20T00:16:27;-0.20;99.90
52058;DHT22;38063;53.210;6.504;2022-11-20T00:18:53;-0.20;99.90
52058;DHT22;38063;53.210;6.504;2022-11-20T00:21:24;-0.20;99.90
52058;DHT22;38063;53.210;6.504;2022-11-20T00:23:51;-0.20;99.90
52058;DHT22;38063;53.210;6.504;2022-11-20T00:26:18;-0.10;99.90
52058;DHT22;38063;53.210;6.504;2022-11-20T00:28:49;-0.20;99.90
52058;DHT22;38063;53.210;6.504;2022-11-20T00:31:15;-0.20;99.90
52058;DHT22;38063;53.210;6.504;2022-11-20T00:33:42;-0.10;99.90
52058;DHT22;38063;53.210;6.504;2022-11-20T00:36:10;-0.10;99.90
52058;DHT22;38063;53.210;6.504;2022-11-20T00:38:36;-0.10;99.90
52058;DHT22;38063;53.210;6.504;2022-11-20T00:41:13;-0.10;99.90
52058;DHT22;38063;53.210;6.504;2022-11-20T00:43:39;-0.10;99.90
52058;DHT22;38063;53.210;6.504;2022-11-20T00:46:17;1.10;99.90
52058;DHT22;38063;53.210;6.504;2022-11-20T00:48:43;-0.10;99.90
52058;DHT22;38063;53.210;6.504;2022-11-20T00:51:12;-0.10;99.90
52058;DHT22;38063;53.210;6.504;2022-11-20T00:53:38;-0.10;99.90
52058;DHT22;38063;53.210;6.504;2022-11-20T00:56:10;1.30;99.90
52058;DHT22;38063;53.210;6.504;2022-11-20T00:58:38;-0.10;99.90
52058;DHT22;38063;53.210;6.504;2022-11-20T01:01:07;-0.10;99.90
52058;DHT22;38063;53.210;6.504;2022-11-20T01:03:34;-0.10;99.90
52058;DHT22;38063;53.210;6.504;2022-11-20T01:06:01;-0.10;99.90
52058;DHT22;38063;53.210;6.504;2022-11-20T01:08:34;-0.10;99.90
52058;DHT22;38063;53.210;6.504;2022-11-20T01:11:12;-0.10;99.90
52058;DHT22;38063;53.210;6.504;2022-11-20T01:13:38;-0.10;99.90
52058;DHT22;38063;53.210;6.504;2022-11-20T01:16:06;-0.10;99.90
52058;DHT22;38063;53.210;6.504;2022-11-20T01:18:33;-0.10;99.90
52058;DHT22;38063;53.210;6.504;2022-11-20T01:21:08;-0.10;99.90
52058;DHT22;38063;53.210;6.504;2022-11-20T01:23:35;0.00;99.90
52058;DHT22;38063;53.210;6.504;2022-11-20T01:26:07;-0.10;99.90
52058;DHT22;38063;53.210;6.504;2022-11-20T01:28:34;-0.10;99.90
52058;DHT22;38063;53.210;6.504;2022-11-20T01:31:00;-0.10;99.90
52058;DHT22;38063;53.210;6.504;2022-11-20T01:33:26;0.00;99.90
52058;DHT22;38063;53.210;6.504;2022-11-20T01:35:52;-0.10;99.90
52058;DHT22;38063;53.210;6.504;2022-11-20T01:38:18;-0.10;99.90
52058;DHT22;38063;53.210;6.504;2022-11-20T01:40:45;0.00;99.90
52058;DHT22;38063;53.210;6.504;2022-11-20T01:43:19;0.00;99.90
52058;DHT22;38063;53.210;6.504;2022-11-20T01:48:21;0.00;99.90
52058;DHT22;38063;53.210;6.504;2022-11-20T01:50:48;0.00;99.90
52058;DHT22;38063;53.210;6.504;2022-11-20T01:53:16;0.00;99.90
52058;DHT22;38063;53.210;6.504;2022-11-20T01:55:46;0.00;99.90
52058;DHT22;38063;53.210;6.504;2022-11-20T01:58:13;0.00;99.90
52058;DHT22;38063;53.210;6.504;2022-11-20T02:00:40;0.00;99.90
52058;DHT22;38063;53.210;6.504;2022-11-20T02:03:11;0.00;99.90
52058;DHT22;38063;53.210;6.504;2022-11-20T02:05:42;0.00;99.90
52058;DHT22;38063;53.210;6.504;2022-11-20T02:08:10;0.00;99.90
52058;DHT22;38063;53.210;6.504;2022-11-20T02:10:36;0.00;99.90
52058;DHT22;38063;53.210;6.504;2022-11-20T02:13:02;0.00;99.90
52058;DHT22;38063;53.210;6.504;2022-11-20T02:15:47;0.00;99.90
52058;DHT22;38063;53.210;6.504;2022-11-20T02:18:16;0.00;99.90
52058;DHT22;38063;53.210;6.504;2022-11-20T02:20:44;0.00;99.90
52058;DHT22;38063;53.210;6.504;2022-11-20T02:23:39;0.00;99.90
52058;DHT22;38063;53.210;6.504;2022-11-20T02:26:12;0.00;99.90
52058;DHT22;38063;53.210;6.504;2022-11-20T02:28:38;0.00;99.90
52058;DHT22;38063;53.210;6.504;2022-11-20T02:31:04;-0.10;99.90
52058;DHT22;38063;53.210;6.504;2022-11-20T02:33:30;0.00;99.90
52058;DHT22;38063;53.210;6.504;2022-11-20T02:35:55;0.00;99.90
52058;DHT22;38063;53.210;6.504;2022-11-20T02:38:21;-0.10;99.90
52058;DHT22;38063;53.210;6.504;2022-11-20T02:40:47;0.00;99.90
52058;DHT22;38063;53.210;6.504;2022-11-20T02:43:12;0.00;99.90
52058;DHT22;38063;53.210;6.504;2022-11-20T02:45:38;0.00;99.90
52058;DHT22;38063;53.210;6.504;2022-11-20T02:48:05;0.00;99.90
52058;DHT22;38063;53.210;6.504;2022-11-20T02:50:31;0.00;99.90
52058;DHT22;38063;53.210;6.504;2022-11-20T02:52:57;0.00;99.90
52058;DHT22;38063;53.210;6.504;2022-11-20T02:55:22;0.00;99.90
52058;DHT22;38063;53.210;6.504;2022-11-20T02:57:48;0.00;99.90
52058;DHT22;38063;53.210;6.504;2022-11-20T03:00:14;0.00;99.90
52058;DHT22;38063;53.210;6.504;2022-11-20T03:02:39;0.10;99.90
52058;DHT22;38063;53.210;6.504;2022-11-20T03:05:05;0.00;99.90
52058;DHT22;38063;53.210;6.504;2022-11-20T03:07:31;0.10;99.90
52058;DHT22;38063;53.210;6.504;2022-11-20T03:09:56;0.10;99.90
52058;DHT22;38063;53.210;6.504;2022-11-20T03:12:22;0.10;99.90
52058;DHT22;38063;53.210;6.504;2022-11-20T03:14:48;0.10;99.90
52058;DHT22;38063;53.210;6.504;2022-11-20T03:17:13;0.10;99.90
52058;DHT22;38063;53.210;6.504;2022-11-20T03:19:39;0.10;99.90
52058;DHT22;38063;53.210;6.504;2022-11-20T03:22:04;0.10;99.90
52058;DHT22;38063;53.210;6.504;2022-11-20T03:24:30;0.10;99.90
52058;DHT22;38063;53.210;6.504;2022-11-20T03:26:56;0.10;99.90
52058;DHT22;38063;53.210;6.504;2022-11-20T03:29:21;0.10;99.90
52058;DHT22;38063;53.210;6.504;2022-11-20T03:31:47;0.10;99.90
52058;DHT22;38063;53.210;6.504;2022-11-20T03:34:12;0.10;99.90
52058;DHT22;38063;53.210;6.504;2022-11-20T03:36:40;0.10;99.90
52058;DHT22;38063;53.210;6.504;2022-11-20T03:39:06;0.10;99.90
52058;DHT22;38063;53.210;6.504;2022-11-20T03:41:36;0.10;99.90
52058;DHT22;38063;53.210;6.504;2022-11-20T03:44:04;0.20;99.90
52058;DHT22;38063;53.210;6.504;2022-11-20T03:46:31;1.10;99.90
52058;DHT22;38063;53.210;6.504;2022-11-20T03:48:57;0.10;99.90
52058;DHT22;38063;53.210;6.504;2022-11-20T03:51:25;0.20;99.90
52058;DHT22;38063;53.210;6.504;2022-11-20T03:53:53;0.10;99.90
52058;DHT22;38063;53.210;6.504;2022-11-20T03:56:22;0.20;99.90
52058;DHT22;38063;53.210;6.504;2022-11-20T03:58:48;0.20;99.90
52058;DHT22;38063;53.210;6.504;2022-11-20T04:01:20;0.20;99.90
52058;DHT22;38063;53.210;6.504;2022-11-20T04:03:47;0.20;99.90
52058;DHT22;38063;53.210;6.504;2022-11-20T04:06:18;0.20;99.90
52058;DHT22;38063;53.210;6.504;2022-11-20T04:08:44;0.20;99.90
52058;DHT22;38063;53.210;6.504;2022-11-20T04:11:15;0.10;99.90
52058;DHT22;38063;53.210;6.504;2022-11-20T04:13:45;0.10;99.90
52058;DHT22;38063;53.210;6.504;2022-11-20T04:16:11;0.20;99.90
52058;DHT22;38063;53.210;6.504;2022-11-20T04:18:37;0.20;99.90
52058;DHT22;38063;53.210;6.504;2022-11-20T04:21:03;0.20;99.90
52058;DHT22;38063;53.210;6.504;2022-11-20T04:23:30;0.20;99.90
52058;DHT22;38063;53.210;6.504;2022-11-20T04:26:01;0.20;99.90
52058;DHT22;38063;53.210;6.504;2022-11-20T04:28:27;0.20;99.90
52058;DHT22;38063;53.210;6.504;2022-11-20T04:30:53;0.20;99.90
52058;DHT22;38063;53.210;6.504;2022-11-20T04:33:18;0.20;99.90
52058;DHT22;38063;53.210;6.504;2022-11-20T04:35:46;0.20;99.90
52058;DHT22;38063;53.210;6.504;2022-11-20T04:38:12;0.20;99.90
52058;DHT22;38063;53.210;6.504;2022-11-20T04:40:38;0.30;99.90
52058;DHT22;38063;53.210;6.504;2022-11-20T04:43:03;0.30;99.90
52058;DHT22;38063;53.210;6.504;2022-11-20T04:45:29;0.30;99.90
52058;DHT22;38063;53.210;6.504;2022-11-20T04:47:54;0.30;99.90
52058;DHT22;38063;53.210;6.504;2022-11-20T04:50:20;0.30;99.90
52058;DHT22;38063;53.210;6.504;2022-11-20T04:52:46;0.30;99.90
52058;DHT22;38063;53.210;6.504;2022-11-20T04:55:11;0.30;99.90
52058;DHT22;38063;53.210;6.504;2022-11-20T04:57:37;0.30;99.90
52058;DHT22;38063;53.210;6.504;2022-11-20T05:00:03;0.30;99.90
52058;DHT22;38063;53.210;6.504;2022-11-20T05:02:31;0.30;99.90
52058;DHT22;38063;53.210;6.504;2022-11-20T05:04:56;0.40;99.90
52058;DHT22;38063;53.210;6.504;2022-11-20T05:07:22;0.30;99.90
52058;DHT22;38063;53.210;6.504;2022-11-20T05:09:47;0.40;99.90
52058;DHT22;38063;53.210;6.504;2022-11-20T05:12:13;0.30;99.90
52058;DHT22;38063;53.210;6.504;2022-11-20T05:14:39;0.30;99.90
52058;DHT22;38063;53.210;6.504;2022-11-20T05:17:04;0.30;99.90
52058;DHT22;38063;53.210;6.504;2022-11-20T05:19:30;0.30;99.90
52058;DHT22;38063;53.210;6.504;2022-11-20T05:21:56;0.30;99.90
52058;DHT22;38063;53.210;6.504;2022-11-20T05:24:21;0.30;99.90
52058;DHT22;38063;53.210;6.504;2022-11-20T05:26:47;0.30;99.90
52058;DHT22;38063;53.210;6.504;2022-11-20T05:29:13;0.30;99.90
52058;DHT22;38063;53.210;6.504;2022-11-20T05:31:40;0.30;99.90
52058;DHT22;38063;53.210;6.504;2022-11-20T05:34:06;0.30;99.90
52058;DHT22;38063;53.210;6.504;2022-11-20T05:36:31;0.30;99.90
52058;DHT22;38063;53.210;6.504;2022-11-20T05:38:57;0.30;99.90
52058;DHT22;38063;53.210;6.504;2022-11-20T05:41:23;0.40;99.90
52058;DHT22;38063;53.210;6.504;2022-11-20T05:43:49;0.40;99.90
52058;DHT22;38063;53.210;6.504;2022-11-20T05:46:18;0.40;99.90
52058;DHT22;38063;53.210;6.504;2022-11-20T05:48:45;0.40;99.90
52058;DHT22;38063;53.210;6.504;2022-11-20T05:51:13;0.40;99.90
52058;DHT22;38063;53.210;6.504;2022-11-20T05:53:39;0.40;99.90
52058;DHT22;38063;53.210;6.504;2022-11-20T05:56:14;0.40;99.90
52058;DHT22;38063;53.210;6.504;2022-11-20T05:58:40;0.40;99.90
52058;DHT22;38063;53.210;6.504;2022-11-20T06:03:40;0.40;99.90
52058;DHT22;38063;53.210;6.504;2022-11-20T06:06:08;0.40;99.90
52058;DHT22;38063;53.210;6.504;2022-11-20T06:08:34;0.40;99.90
52058;DHT22;38063;53.210;6.504;2022-11-20T06:11:08;0.40;99.90
52058;DHT22;38063;53.210;6.504;2022-11-20T06:13:34;0.30;99.90
52058;DHT22;38063;53.210;6.504;2022-11-20T06:16:00;0.30;99.90
52058;DHT22;38063;53.210;6.504;2022-11-20T06:18:29;0.30;99.90
52058;DHT22;38063;53.210;6.504;2022-11-20T06:21:04;0.30;99.90
52058;DHT22;38063;53.210;6.504;2022-11-20T06:23:31;0.30;99.90
52058;DHT22;38063;53.210;6.504;2022-11-20T06:25:58;0.30;99.90
52058;DHT22;38063;53.210;6.504;2022-11-20T06:28:23;0.30;99.90
52058;DHT22;38063;53.210;6.504;2022-11-20T06:30:49;0.30;99.90
52058;DHT22;38063;53.210;6.504;2022-11-20T06:33:15;0.30;99.90
52058;DHT22;38063;53.210;6.504;2022-11-20T06:35:40;0.30;99.90
52058;DHT22;38063;53.210;6.504;2022-11-20T06:38:06;0.40;99.90
52058;DHT22;38063;53.210;6.504;2022-11-20T06:40:31;0.40;99.90
52058;DHT22;38063;53.210;6.504;2022-11-20T06:42:57;0.40;99.90
52058;DHT22;38063;53.210;6.504;2022-11-20T06:45:22;0.40;99.90
52058;DHT22;38063;53.210;6.504;2022-11-20T06:47:48;0.40;99.90
52058;DHT22;38063;53.210;6.504;2022-11-20T06:50:13;0.40;99.90
52058;DHT22;38063;53.210;6.504;2022-11-20T06:52:42;0.40;99.90
52058;DHT22;38063;53.210;6.504;2022-11-20T06:55:08;0.40;99.90
52058;DHT22;38063;53.210;6.504;2022-11-20T06:57:33;0.40;99.90
52058;DHT22;38063;53.210;6.504;2022-11-20T06:59:59;0.50;99.90
52058;DHT22;38063;53.210;6.504;2022-11-20T07:02:24;0.50;99.90
52058;DHT22;38063;53.210;6.504;2022-11-20T07:04:50;0.50;99.90
52058;DHT22;38063;53.210;6.504;2022-11-20T07:07:16;0.50;99.90
52058;DHT22;38063;53.210;6.504;2022-11-20T07:09:41;0.50;99.90
52058;DHT22;38063;53.210;6.504;2022-11-20T07:12:07;0.60;99.90
52058;DHT22;38063;53.210;6.504;2022-11-20T07:14:33;0.50;99.90
52058;DHT22;38063;53.210;6.504;2022-11-20T07:16:59;0.60;99.90
52058;DHT22;38063;53.210;6.504;2022-11-20T07:19:24;0.60;99.90
52058;DHT22;38063;53.210;6.504;2022-11-20T07:21:50;0.60;99.90
52058;DHT22;38063;53.210;6.504;2022-11-20T07:24:15;0.60;99.90
52058;DHT22;38063;53.210;6.504;2022-11-20T07:26:41;0.80;99.90
52058;DHT22;38063;53.210;6.504;2022-11-20T07:29:06;0.60;99.90
52058;DHT22;38063;53.210;6.504;2022-11-20T07:31:32;0.60;99.90
52058;DHT22;38063;53.210;6.504;2022-11-20T07:33:58;0.60;99.90
52058;DHT22;38063;53.210;6.504;2022-11-20T07:36:23;0.60;99.90
52058;DHT22;38063;53.210;6.504;2022-11-20T07:38:49;0.60;99.90
52058;DHT22;38063;53.210;6.504;2022-11-20T07:41:15;0.60;99.90
52058;DHT22;38063;53.210;6.504;2022-11-20T07:43:40;0.60;99.90
52058;DHT22;38063;53.210;6.504;2022-11-20T07:46:06;0.70;99.90
52058;DHT22;38063;53.210;6.504;2022-11-20T07:48:31;0.70;99.90
52058;DHT22;38063;53.210;6.504;2022-11-20T07:50:57;0.60;99.90
52058;DHT22;38063;53.210;6.504;2022-11-20T07:53:23;0.70;99.90
52058;DHT22;38063;53.210;6.504;2022-11-20T07:55:49;0.70;99.90
52058;DHT22;38063;53.210;6.504;2022-11-20T07:58:18;0.70;99.90
52058;DHT22;38063;53.210;6.504;2022-11-20T08:00:44;0.70;99.90
52058;DHT22;38063;53.210;6.504;2022-11-20T08:03:10;2.00;99.90
52058;DHT22;38063;53.210;6.504;2022-11-20T08:05:35;0.70;99.90
52058;DHT22;38063;53.210;6.504;2022-11-20T08:08:01;0.70;99.90
52058;DHT22;38063;53.210;6.504;2022-11-20T08:10:26;0.70;99.90
52058;DHT22;38063;53.210;6.504;2022-11-20T08:12:52;0.70;99.90
52058;DHT22;38063;53.210;6.504;2022-11-20T08:15:38;0.70;99.90
52058;DHT22;38063;53.210;6.504;2022-11-20T08:18:11;0.80;99.90
52058;DHT22;38063;53.210;6.504;2022-11-20T08:20:37;0.90;99.90
52058;DHT22;38063;53.210;6.504;2022-11-20T08:23:05;0.80;99.90
52058;DHT22;38063;53.210;6.504;2022-11-20T08:25:32;0.80;99.90
52058;DHT22;38063;53.210;6.504;2022-11-20T08:27:59;0.90;99.90
52058;DHT22;38063;53.210;6.504;2022-11-20T08:30:25;0.90;99.90
52058;DHT22;38063;53.210;6.504;2022-11-20T08:32:51;0.90;99.90
52058;DHT22;38063;53.210;6.504;2022-11-20T08:35:16;0.90;99.90
52058;DHT22;38063;53.210;6.504;2022-11-20T08:37:46;0.90;99.90
52058;DHT22;38063;53.210;6.504;2022-11-20T08:40:12;0.90;99.90
52058;DHT22;38063;53.210;6.504;2022-11-20T08:42:45;0.90;99.90
52058;DHT22;38063;53.210;6.504;2022-11-20T08:45:10;0.90;99.90
52058;DHT22;38063;53.210;6.504;2022-11-20T08:47:36;0.90;99.90
52058;DHT22;38063;53.210;6.504;2022-11-20T08:50:01;1.00;99.90
52058;DHT22;38063;53.210;6.504;2022-11-20T08:52:28;1.00;99.90
52058;DHT22;38063;53.210;6.504;2022-11-20T08:54:53;1.00;99.90
52058;DHT22;38063;53.210;6.504;2022-11-20T08:57:19;1.00;99.90
52058;DHT22;38063;53.210;6.504;2022-11-20T08:59:44;1.00;99.90
52058;DHT22;38063;53.210;6.504;2022-11-20T09:02:11;1.10;99.90
52058;DHT22;38063;53.210;6.504;2022-11-20T09:04:37;1.00;99.90
52058;DHT22;38063;53.210;6.504;2022-11-20T09:07:03;2.00;99.90
52058;DHT22;38063;53.210;6.504;2022-11-20T09:09:28;1.00;99.90
52058;DHT22;38063;53.210;6.504;2022-11-20T09:11:54;1.10;99.90
52058;DHT22;38063;53.210;6.504;2022-11-20T09:14:19;1.10;99.90
52058;DHT22;38063;53.210;6.504;2022-11-20T09:16:46;1.10;99.90
52058;DHT22;38063;53.210;6.504;2022-11-20T09:19:12;1.10;99.90
52058;DHT22;38063;53.210;6.504;2022-11-20T09:21:37;1.20;99.90
52058;DHT22;38063;53.210;6.504;2022-11-20T09:24:04;1.20;99.90
52058;DHT22;38063;53.210;6.504;2022-11-20T09:26:30;1.10;99.90
52058;DHT22;38063;53.210;6.504;2022-11-20T09:28:56;1.10;99.90
52058;DHT22;38063;53.210;6.504;2022-11-20T09:31:25;1.20;99.90
52058;DHT22;38063;53.210;6.504;2022-11-20T09:33:51;1.20;99.90
52058;DHT22;38063;53.210;6.504;2022-11-20T09:36:17;1.20;99.90
52058;DHT22;38063;53.210;6.504;2022-11-20T09:38:45;1.20;99.90
52058;DHT22;38063;53.210;6.504;2022-11-20T09:46:49;1.30;99.90
52058;DHT22;38063;53.210;6.504;2022-11-20T09:52:00;1.30;99.90
52058;DHT22;38063;53.210;6.504;2022-11-20T09:54:30;1.30;99.90
52058;DHT22;38063;53.210;6.504;2022-11-20T09:57:00;1.40;99.90
52058;DHT22;38063;53.210;6.504;2022-11-20T09:59:38;1.40;99.90
52058;DHT22;38063;53.210;6.504;2022-11-20T10:02:36;1.50;99.90
52058;DHT22;38063;53.210;6.504;2022-11-20T10:05:09;1.60;99.90
52058;DHT22;38063;53.210;6.504;2022-11-20T10:07:50;1.60;99.90
52058;DHT22;38063;53.210;6.504;2022-11-20T10:10:46;1.60;99.90
52058;DHT22;38063;53.210;6.504;2022-11-20T10:13:23;1.60;99.90
52058;DHT22;38063;53.210;6.504;2022-11-20T10:21:30;1.80;99.90
52058;DHT22;38063;53.210;6.504;2022-11-20T10:29:15;1.90;99.90
52058;DHT22;38063;53.210;6.504;2022-11-20T10:31:52;1.90;99.90
52058;DHT22;38063;53.210;6.504;2022-11-20T10:34:54;2.00;99.90
52058;DHT22;38063;53.210;6.504;2022-11-20T10:37:25;2.10;99.90
52058;DHT22;38063;53.210;6.504;2022-11-20T10:40:06;2.10;99.90
52058;DHT22;38063;53.210;6.504;2022-11-20T10:42:46;2.20;99.90
52058;DHT22;38063;53.210;6.504;2022-11-20T10:50:35;2.20;99.90
52058;DHT22;38063;53.210;6.504;2022-11-20T10:53:16;2.30;99.90
52058;DHT22;38063;53.210;6.504;2022-11-20T10:55:57;2.30;99.90
52058;DHT22;38063;53.210;6.504;2022-11-20T11:01:26;2.50;99.90
52058;DHT22;38063;53.210;6.504;2022-11-20T11:03:53;2.50;99.90
52058;DHT22;38063;53.210;6.504;2022-11-20T11:06:39;2.50;99.90
52058;DHT22;38063;53.210;6.504;2022-11-20T11:09:17;2.90;99.90
52058;DHT22;38063;53.210;6.504;2022-11-20T11:11:44;2.50;99.90
52058;DHT22;38063;53.210;6.504;2022-11-20T11:14:12;2.50;99.90
52058;DHT22;38063;53.210;6.504;2022-11-20T11:16:57;2.40;99.90
52058;DHT22;38063;53.210;6.504;2022-11-20T11:19:24;2.30;99.90
52058;DHT22;38063;53.210;6.504;2022-11-20T11:21:56;2.30;99.90
52058;DHT22;38063;53.210;6.504;2022-11-20T11:24:27;2.30;99.90
52058;DHT22;38063;53.210;6.504;2022-11-20T11:27:02;2.20;99.90
52058;DHT22;38063;53.210;6.504;2022-11-20T11:29:30;2.20;99.90
52058;DHT22;38063;53.210;6.504;2022-11-20T11:32:28;2.20;99.90
52058;DHT22;38063;53.210;6.504;2022-11-20T11:35:05;2.30;99.90
52058;DHT22;38063;53.210;6.504;2022-11-20T11:37:36;2.30;99.90
52058;DHT22;38063;53.210;6.504;2022-11-20T11:40:08;2.40;99.90
52058;DHT22;38063;53.210;6.504;2022-11-20T11:42:44;2.40;99.90
52058;DHT22;38063;53.210;6.504;2022-11-20T11:45:14;2.40;99.90
52058;DHT22;38063;53.210;6.504;2022-11-20T11:50:25;2.40;99.90
52058;DHT22;38063;53.210;6.504;2022-11-20T11:55:45;2.50;99.90
52058;DHT22;38063;53.210;6.504;2022-11-20T11:58:39;2.50;99.90
52058;DHT22;38063;53.210;6.504;2022-11-20T12:01:20;2.40;99.90
52058;DHT22;38063;53.210;6.504;2022-11-20T12:06:33;2.40;99.90
52058;DHT22;38063;53.210;6.504;2022-11-20T12:09:07;2.50;99.90
52058;DHT22;38063;53.210;6.504;2022-11-20T12:11:58;2.50;99.90
52058;DHT22;38063;53.210;6.504;2022-11-20T12:14:35;2.50;99.90
52058;DHT22;38063;53.210;6.504;2022-11-20T12:17:02;2.60;99.90
52058;DHT22;38063;53.210;6.504;2022-11-20T12:19:33;2.60;99.90
52058;DHT22;38063;53.210;6.504;2022-11-20T12:24:58;2.80;99.90
52058;DHT22;38063;53.210;6.504;2022-11-20T12:30:24;2.90;99.90
52058;DHT22;38063;53.210;6.504;2022-11-20T12:39:07;3.10;99.90
52058;DHT22;38063;53.210;6.504;2022-11-20T12:41:54;3.20;99.90
52058;DHT22;38063;53.210;6.504;2022-11-20T12:50:32;3.10;99.90
52058;DHT22;38063;53.210;6.504;2022-11-20T12:59:10;3.20;99.90
52058;DHT22;38063;53.210;6.504;2022-11-20T13:07:13;3.20;99.90
52058;DHT22;38063;53.210;6.504;2022-11-20T13:09:57;3.20;99.90
52058;DHT22;38063;53.210;6.504;2022-11-20T13:12:39;3.20;99.90
52058;DHT22;38063;53.210;6.504;2022-11-20T13:15:35;3.30;99.90
52058;DHT22;38063;53.210;6.504;2022-11-20T13:18:11;3.30;99.90
52058;DHT22;38063;53.210;6.504;2022-11-20T13:20:42;3.30;99.90
52058;DHT22;38063;53.210;6.504;2022-11-20T13:23:08;3.30;99.90
52058;DHT22;38063;53.210;6.504;2022-11-20T13:25:36;3.30;99.90
52058;DHT22;38063;53.210;6.504;2022-11-20T13:30:55;3.40;99.90
52058;DHT22;38063;53.210;6.504;2022-11-20T13:33:28;3.40;99.90
52058;DHT22;38063;53.210;6.504;2022-11-20T13:36:21;3.40;99.90
52058;DHT22;38063;53.210;6.504;2022-11-20T13:38:50;3.40;99.90
52058;DHT22;38063;53.210;6.504;2022-11-20T13:41:43;3.40;99.90
52058;DHT22;38063;53.210;6.504;2022-11-20T13:46:57;3.40;99.90
52058;DHT22;38063;53.210;6.504;2022-11-20T13:49:33;3.40;99.90
52058;DHT22;38063;53.210;6.504;2022-11-20T14:00:51;3.40;99.90
52058;DHT22;38063;53.210;6.504;2022-11-20T14:03:24;3.40;99.90
52058;DHT22;38063;53.210;6.504;2022-11-20T14:06:02;3.40;99.90
52058;DHT22;38063;53.210;6.504;2022-11-20T14:08:45;3.40;99.90
52058;DHT22;38063;53.210;6.504;2022-11-20T14:16:27;3.40;99.90
52058;DHT22;38063;53.210;6.504;2022-11-20T14:18:54;3.40;99.90
52058;DHT22;38063;53.210;6.504;2022-11-20T14:21:28;3.30;99.90
52058;DHT22;38063;53.210;6.504;2022-11-20T14:24:09;3.30;99.90
52058;DHT22;38063;53.210;6.504;2022-11-20T14:26:37;3.30;99.90
52058;DHT22;38063;53.210;6.504;2022-11-20T14:29:04;3.20;99.90
52058;DHT22;38063;53.210;6.504;2022-11-20T14:31:30;4.50;99.90
52058;DHT22;38063;53.210;6.504;2022-11-20T14:33:56;3.20;99.90
52058;DHT22;38063;53.210;6.504;2022-11-20T14:36:24;3.10;99.90
52058;DHT22;38063;53.210;6.504;2022-11-20T14:38:51;3.10;99.90
52058;DHT22;38063;53.210;6.504;2022-11-20T14:41:22;3.10;99.90
52058;DHT22;38063;53.210;6.504;2022-11-20T14:43:57;3.00;99.90
52058;DHT22;38063;53.210;6.504;2022-11-20T14:46:24;3.70;99.90
52058;DHT22;38063;53.210;6.504;2022-11-20T14:48:53;2.90;99.90
52058;DHT22;38063;53.210;6.504;2022-11-20T14:51:36;2.90;99.90
52058;DHT22;38063;53.210;6.504;2022-11-20T14:54:16;2.90;99.90
52058;DHT22;38063;53.210;6.504;2022-11-20T14:56:56;2.80;99.90
52058;DHT22;38063;53.210;6.504;2022-11-20T14:59:49;2.80;99.90
52058;DHT22;38063;53.210;6.504;2022-11-20T15:02:18;2.80;99.90
52058;DHT22;38063;53.210;6.504;2022-11-20T15:04:49;2.80;99.90
52058;DHT22;38063;53.210;6.504;2022-11-20T15:07:26;2.70;99.90
52058;DHT22;38063;53.210;6.504;2022-11-20T15:10:07;2.70;99.90
52058;DHT22;38063;53.210;6.504;2022-11-20T15:12:35;2.60;99.90
52058;DHT22;38063;53.210;6.504;2022-11-20T15:15:03;2.60;99.90
52058;DHT22;38063;53.210;6.504;2022-11-20T15:17:31;2.50;99.90
52058;DHT22;38063;53.210;6.504;2022-11-20T15:19:57;2.50;99.90
52058;DHT22;38063;53.210;6.504;2022-11-20T15:22:24;2.40;99.90
52058;DHT22;38063;53.210;6.504;2022-11-20T15:24:49;2.40;99.90
52058;DHT22;38063;53.210;6.504;2022-11-20T15:27:15;2.40;99.90
52058;DHT22;38063;53.210;6.504;2022-11-20T15:29:41;2.30;99.90
52058;DHT22;38063;53.210;6.504;2022-11-20T15:32:08;2.20;99.90
52058;DHT22;38063;53.210;6.504;2022-11-20T15:34:34;2.20;99.90
52058;DHT22;38063;53.210;6.504;2022-11-20T15:37:00;2.20;99.90
52058;DHT22;38063;53.210;6.504;2022-11-20T15:39:25;2.20;99.90
52058;DHT22;38063;53.210;6.504;2022-11-20T15:41:51;2.10;99.90
52058;DHT22;38063;53.210;6.504;2022-11-20T15:44:16;2.20;99.90
52058;DHT22;38063;53.210;6.504;2022-11-20T15:46:43;2.10;99.90
52058;DHT22;38063;53.210;6.504;2022-11-20T15:49:15;2.10;99.90
52058;DHT22;38063;53.210;6.504;2022-11-20T15:51:43;2.10;99.90
52058;DHT22;38063;53.210;6.504;2022-11-20T15:54:14;2.10;99.90
52058;DHT22;38063;53.210;6.504;2022-11-20T15:56:41;2.00;99.90
52058;DHT22;38063;53.210;6.504;2022-11-20T15:59:07;2.00;99.90
52058;DHT22;38063;53.210;6.504;2022-11-20T16:01:32;2.00;99.90
52058;DHT22;38063;53.210;6.504;2022-11-20T16:03:59;2.00;99.90
52058;DHT22;38063;53.210;6.504;2022-11-20T16:06:25;2.00;99.90
52058;DHT22;38063;53.210;6.504;2022-11-20T16:08:51;2.00;99.90
52058;DHT22;38063;53.210;6.504;2022-11-20T16:11:17;2.00;99.90
52058;DHT22;38063;53.210;6.504;2022-11-20T16:13:43;2.00;99.90
52058;DHT22;38063;53.210;6.504;2022-11-20T16:16:33;2.00;99.90
52058;DHT22;38063;53.210;6.504;2022-11-20T16:18:59;1.90;99.90
52058;DHT22;38063;53.210;6.504;2022-11-20T16:21:26;1.90;99.90
52058;DHT22;38063;53.210;6.504;2022-11-20T16:24:03;1.90;99.90
52058;DHT22;38063;53.210;6.504;2022-11-20T16:26:30;1.90;99.90
52058;DHT22;38063;53.210;6.504;2022-11-20T16:28:56;1.90;99.90
52058;DHT22;38063;53.210;6.504;2022-11-20T16:31:22;1.90;99.90
52058;DHT22;38063;53.210;6.504;2022-11-20T16:33:52;1.90;99.90
52058;DHT22;38063;53.210;6.504;2022-11-20T16:36:20;1.90;99.90
52058;DHT22;38063;53.210;6.504;2022-11-20T16:38:46;1.90;99.90
52058;DHT22;38063;53.210;6.504;2022-11-20T16:41:12;1.90;99.90
52058;DHT22;38063;53.210;6.504;2022-11-20T16:43:51;1.90;99.90
52058;DHT22;38063;53.210;6.504;2022-11-20T16:46:18;1.80;99.90
52058;DHT22;38063;53.210;6.504;2022-11-20T16:48:45;1.80;99.90
52058;DHT22;38063;53.210;6.504;2022-11-20T16:51:14;1.80;99.90
52058;DHT22;38063;53.210;6.504;2022-11-20T16:53:39;1.80;99.90
52058;DHT22;38063;53.210;6.504;2022-11-20T16:56:13;1.80;99.90
52058;DHT22;38063;53.210;6.504;2022-11-20T16:58:43;1.80;99.90
52058;DHT22;38063;53.210;6.504;2022-11-20T17:01:10;1.80;99.90
52058;DHT22;38063;53.210;6.504;2022-11-20T17:03:37;1.80;99.90
52058;DHT22;38063;53.210;6.504;2022-11-20T17:06:13;1.80;99.90
52058;DHT22;38063;53.210;6.504;2022-11-20T17:08:39;2.20;99.90
52058;DHT22;38063;53.210;6.504;2022-11-20T17:11:10;1.80;99.90
52058;DHT22;38063;53.210;6.504;2022-11-20T17:13:37;1.80;99.90
52058;DHT22;38063;53.210;6.504;2022-11-20T17:16:05;1.80;99.90
52058;DHT22;38063;53.210;6.504;2022-11-20T17:18:31;1.80;99.90
52058;DHT22;38063;53.210;6.504;2022-11-20T17:20:57;1.80;99.90
52058;DHT22;38063;53.210;6.504;2022-11-20T17:23:27;1.80;99.90
52058;DHT22;38063;53.210;6.504;2022-11-20T17:26:07;1.80;99.90
52058;DHT22;38063;53.210;6.504;2022-11-20T17:28:33;1.80;99.90